sensor_id;sensor_type;location;lat;lon;timestamp;pressure;altitude;pressure_sealevel;temperature;humidity
21879;BME280;27908;42.708;23.278;2022-11-06T00:00:21;58089.25;;;10.81;100.00
21879;BME280;27908;42.708;23.278;2022-11-06T00:02:46;58077.16;;;10.98;100.00
21879;BME280;27908;42.708;23.278;2022-11-06T00:05:12;57967.91;;;10.95;100.00
21879;BME280;27908;42.708;23.278;2022-11-06T00:07:56;57999.06;;;10.88;100.00
21879;BME280;27908;42.708;23.278;2022-11-06T00:10:22;57942.53;;;11.06;100.00
21879;BME280;27908;42.708;23.278;2022-11-06T00:12:48;57966.22;;;11.15;100.00
21879;BME280;27908;42.708;23.278;2022-11-06T00:15:13;57944.91;;;11.14;100.00
21879;BME280;27908;42.708;23.278;2022-11-06T00:17:39;57951.44;;;11.21;100.00
21879;BME280;27908;42.708;23.278;2022-11-06T00:20:05;57915.03;;;11.12;100.00
21879;BME280;27908;42.708;23.278;2022-11-06T00:22:32;58017.63;;;11.15;100.00
21879;BME280;27908;42.708;23.278;2022-11-06T00:24:58;58007.06;;;11.01;100.00
21879;BME280;27908;42.708;23.278;2022-11-06T00:27:23;58000.41;;;10.84;100.00
21879;BME280;27908;42.708;23.278;2022-11-06T00:29:49;58076.91;;;10.76;100.00
21879;BME280;27908;42.708;23.278;2022-11-06T00:32:14;58023.31;;;10.84;100.00
21879;BME280;27908;42.708;23.278;2022-11-06T00:34:40;58056.34;;;10.78;100.00
21879;BME280;27908;42.708;23.278;2022-11-06T00:37:05;58003.19;;;10.63;100.00
21879;BME280;27908;42.708;23.278;2022-11-06T00:39:30;57968.66;;;10.80;100.00
21879;BME280;27908;42.708;23.278;2022-11-06T00:41:56;57961.03;;;10.80;100.00
21879;BME280;27908;42.708;23.278;2022-11-06T00:44:21;58015.09;;;10.72;100.00
21879;BME280;27908;42.708;23.278;2022-11-06T00:46:47;58057.31;;;10.61;100.00
21879;BME280;27908;42.708;23.278;2022-11-06T00:49:12;58048.53;;;10.62;100.00
21879;BME280;27908;42.708;23.278;2022-11-06T00:51:37;57998.66;;;10.50;100.00
21879;BME280;27908;42.708;23.278;2022-11-06T00:54:09;57989.75;;;10.59;100.00
21879;BME280;27908;42.708;23.278;2022-11-06T00:56:35;57962.88;;;10.58;100.00
21879;BME280;27908;42.708;23.278;2022-11-06T00:59:03;57981.06;;;10.47;100.00
21879;BME280;27908;42.708;23.278;2022-11-06T01:01:30;58023.03;;;10.38;100.00
21879;BME280;27908;42.708;23.278;2022-11-06T01:03:58;58009.13;;;10.34;100.00
21879;BME280;27908;42.708;23.278;2022-11-06T01:06:27;57991.13;;;10.36;100.00
21879;BME280;27908;42.708;23.278;2022-11-06T01:08:53;58037.91;;;10.24;100.00
21879;BME280;27908;42.708;23.278;2022-11-06T01:11:28;58063.75;;;10.19;100.00
21879;BME280;27908;42.708;23.278;2022-11-06T01:13:55;58072.38;;;10.07;100.00
21879;BME280;27908;42.708;23.278;2022-11-06T01:16:22;58138.97;;;9.94;100.00
21879;BME280;27908;42.708;23.278;2022-11-06T01:18:48;58110.78;;;9.78;100.00
21879;BME280;27908;42.708;23.278;2022-11-06T01:21:20;58119.59;;;9.50;100.00
21879;BME280;27908;42.708;23.278;2022-11-06T01:23:50;57989.44;;;9.57;100.00
21879;BME280;27908;42.708;23.278;2022-11-06T01:26:16;58005.56;;;9.53;100.00
21879;BME280;27908;42.708;23.278;2022-11-06T01:28:41;58006.75;;;9.38;100.00
21879;BME280;27908;42.708;23.278;2022-11-06T01:31:10;57941.31;;;9.30;100.00
21879;BME280;27908;42.708;23.278;2022-11-06T01:33:36;57801.59;;;9.44;100.00
21879;BME280;27908;42.708;23.278;2022-11-06T01:36:02;57762.00;;;9.31;100.00
21879;BME280;27908;42.708;23.278;2022-11-06T01:38:28;57738.69;;;9.31;100.00
21879;BME280;27908;42.708;23.278;2022-11-06T01:40:54;57714.81;;;9.49;100.00
21879;BME280;27908;42.708;23.278;2022-11-06T01:43:23;57628.75;;;9.52;100.00
21879;BME280;27908;42.708;23.278;2022-11-06T01:45:54;57535.69;;;9.53;100.00
21879;BME280;27908;42.708;23.278;2022-11-06T01:48:25;57398.63;;;9.74;100.00
21879;BME280;27908;42.708;23.278;2022-11-06T01:50:55;57166.03;;;9.89;100.00
21879;BME280;27908;42.708;23.278;2022-11-06T01:53:23;56921.88;;;10.27;100.00
21879;BME280;27908;42.708;23.278;2022-11-06T01:55:52;56892.78;;;10.59;100.00
21879;BME280;27908;42.708;23.278;2022-11-06T01:58:19;56780.84;;;10.83;100.00
21879;BME280;27908;42.708;23.278;2022-11-06T02:00:47;56744.91;;;11.10;100.00
21879;BME280;27908;42.708;23.278;2022-11-06T02:03:13;56700.19;;;11.34;100.00
21879;BME280;27908;42.708;23.278;2022-11-06T02:05:39;56554.09;;;11.66;100.00
21879;BME280;27908;42.708;23.278;2022-11-06T02:08:08;56527.19;;;11.97;100.00
21879;BME280;27908;42.708;23.278;2022-11-06T02:10:34;56565.44;;;12.11;100.00
21879;BME280;27908;42.708;23.278;2022-11-06T02:13:26;56503.59;;;12.21;100.00
21879;BME280;27908;42.708;23.278;2022-11-06T02:18:51;56552.94;;;12.22;100.00
21879;BME280;27908;42.708;23.278;2022-11-06T02:29:33;56587.19;;;12.12;100.00
21879;BME280;27908;42.708;23.278;2022-11-06T02:32:06;56537.66;;;12.22;100.00
21879;BME280;27908;42.708;23.278;2022-11-06T02:34:35;56591.28;;;12.31;100.00
21879;BME280;27908;42.708;23.278;2022-11-06T02:37:09;56592.59;;;12.38;100.00
21879;BME280;27908;42.708;23.278;2022-11-06T02:39:37;56583.28;;;12.25;100.00
21879;BME280;27908;42.708;23.278;2022-11-06T02:42:06;56491.28;;;12.22;100.00
21879;BME280;27908;42.708;23.278;2022-11-06T02:44:35;56525.16;;;12.47;100.00
21879;BME280;27908;42.708;23.278;2022-11-06T02:47:04;56566.78;;;12.26;100.00
21879;BME280;27908;42.708;23.278;2022-11-06T02:49:37;56578.19;;;12.52;100.00
21879;BME280;27908;42.708;23.278;2022-11-06T02:52:31;56563.06;;;12.55;99.80
21879;BME280;27908;42.708;23.278;2022-11-06T02:57:34;56541.63;;;12.60;99.77
21879;BME280;27908;42.708;23.278;2022-11-06T03:00:11;56503.81;;;12.60;100.00
21879;BME280;27908;42.708;23.278;2022-11-06T03:03:00;56515.31;;;12.53;100.00
21879;BME280;27908;42.708;23.278;2022-11-06T03:05:35;56643.91;;;12.02;100.00
21879;BME280;27908;42.708;23.278;2022-11-06T03:08:35;56572.34;;;12.41;100.00
21879;BME280;27908;42.708;23.278;2022-11-06T03:11:31;56512.06;;;12.28;100.00
21879;BME280;27908;42.708;23.278;2022-11-06T03:17:00;56499.38;;;12.36;100.00
21879;BME280;27908;42.708;23.278;2022-11-06T03:19:52;56580.66;;;12.30;100.00
21879;BME280;27908;42.708;23.278;2022-11-06T03:22:39;56588.19;;;12.22;100.00
21879;BME280;27908;42.708;23.278;2022-11-06T03:25:19;56586.81;;;12.20;100.00
21879;BME280;27908;42.708;23.278;2022-11-06T03:28:02;56568.25;;;12.22;100.00
21879;BME280;27908;42.708;23.278;2022-11-06T03:30:32;56530.09;;;12.03;100.00
21879;BME280;27908;42.708;23.278;2022-11-06T03:33:32;56482.63;;;12.26;100.00
21879;BME280;27908;42.708;23.278;2022-11-06T03:36:11;56428.69;;;12.34;100.00
21879;BME280;27908;42.708;23.278;2022-11-06T03:38:43;56387.13;;;12.36;100.00
21879;BME280;27908;42.708;23.278;2022-11-06T03:41:19;56328.66;;;12.39;100.00
21879;BME280;27908;42.708;23.278;2022-11-06T03:43:48;56242.81;;;12.40;100.00
21879;BME280;27908;42.708;23.278;2022-11-06T03:46:19;56245.44;;;12.26;100.00
21879;BME280;27908;42.708;23.278;2022-11-06T03:48:52;56228.44;;;12.41;100.00
21879;BME280;27908;42.708;23.278;2022-11-06T03:51:25;56202.16;;;12.43;100.00
21879;BME280;27908;42.708;23.278;2022-11-06T03:57:08;56145.97;;;12.26;100.00
21879;BME280;27908;42.708;23.278;2022-11-06T03:59:40;56174.69;;;12.38;100.00
21879;BME280;27908;42.708;23.278;2022-11-06T04:02:07;56164.03;;;12.38;100.00
21879;BME280;27908;42.708;23.278;2022-11-06T04:04:37;56161.78;;;12.35;100.00
21879;BME280;27908;42.708;23.278;2022-11-06T04:07:12;56152.75;;;12.34;100.00
21879;BME280;27908;42.708;23.278;2022-11-06T04:09:41;56112.84;;;12.35;100.00
21879;BME280;27908;42.708;23.278;2022-11-06T04:12:28;55987.28;;;12.40;100.00
21879;BME280;27908;42.708;23.278;2022-11-06T04:15:17;55874.75;;;12.42;100.00
21879;BME280;27908;42.708;23.278;2022-11-06T04:17:43;55845.34;;;12.41;100.00
21879;BME280;27908;42.708;23.278;2022-11-06T04:20:15;55794.31;;;12.41;100.00
21879;BME280;27908;42.708;23.278;2022-11-06T04:23:12;55707.75;;;12.43;100.00
21879;BME280;27908;42.708;23.278;2022-11-06T04:25:58;55621.03;;;12.43;100.00
21879;BME280;27908;42.708;23.278;2022-11-06T04:28:52;55564.91;;;12.43;100.00
21879;BME280;27908;42.708;23.278;2022-11-06T04:36:49;55356.09;;;12.41;100.00
21879;BME280;27908;42.708;23.278;2022-11-06T04:39:47;55333.25;;;12.44;100.00
21879;BME280;27908;42.708;23.278;2022-11-06T04:45:05;55278.59;;;12.17;100.00
21879;BME280;27908;42.708;23.278;2022-11-06T04:47:34;55200.81;;;12.27;100.00
21879;BME280;27908;42.708;23.278;2022-11-06T04:50:01;55167.66;;;12.39;100.00
21879;BME280;27908;42.708;23.278;2022-11-06T04:52:29;55106.94;;;12.39;100.00
21879;BME280;27908;42.708;23.278;2022-11-06T04:54:56;55043.16;;;12.39;100.00
21879;BME280;27908;42.708;23.278;2022-11-06T04:57:22;55013.00;;;12.40;100.00
21879;BME280;27908;42.708;23.278;2022-11-06T04:59:48;54911.34;;;12.37;100.00
21879;BME280;27908;42.708;23.278;2022-11-06T05:02:14;54895.25;;;12.39;100.00
21879;BME280;27908;42.708;23.278;2022-11-06T05:04:39;54844.50;;;12.34;100.00
21879;BME280;27908;42.708;23.278;2022-11-06T05:07:05;54773.44;;;12.17;100.00
21879;BME280;27908;42.708;23.278;2022-11-06T05:09:30;54656.53;;;12.29;100.00
21879;BME280;27908;42.708;23.278;2022-11-06T05:11:55;54616.53;;;12.41;100.00
21879;BME280;27908;42.708;23.278;2022-11-06T05:14:21;54508.72;;;12.46;100.00
21879;BME280;27908;42.708;23.278;2022-11-06T05:16:46;54392.63;;;12.44;100.00
21879;BME280;27908;42.708;23.278;2022-11-06T05:19:12;54314.97;;;12.49;100.00
21879;BME280;27908;42.708;23.278;2022-11-06T05:21:37;54291.22;;;12.51;100.00
21879;BME280;27908;42.708;23.278;2022-11-06T05:24:21;54200.28;;;12.52;100.00
21879;BME280;27908;42.708;23.278;2022-11-06T05:26:46;54066.00;;;12.53;100.00
21879;BME280;27908;42.708;23.278;2022-11-06T05:29:13;54056.25;;;12.53;100.00
21879;BME280;27908;42.708;23.278;2022-11-06T05:31:39;54081.38;;;12.56;100.00
21879;BME280;27908;42.708;23.278;2022-11-06T05:34:05;54014.69;;;12.58;100.00
21879;BME280;27908;42.708;23.278;2022-11-06T05:36:30;53941.66;;;12.62;100.00
21879;BME280;27908;42.708;23.278;2022-11-06T05:38:56;53923.31;;;12.59;100.00
21879;BME280;27908;42.708;23.278;2022-11-06T05:41:21;53854.13;;;12.64;100.00
21879;BME280;27908;42.708;23.278;2022-11-06T05:43:47;53849.75;;;12.56;100.00
21879;BME280;27908;42.708;23.278;2022-11-06T05:46:12;53809.47;;;12.63;100.00
21879;BME280;27908;42.708;23.278;2022-11-06T05:48:38;53711.63;;;12.59;100.00
21879;BME280;27908;42.708;23.278;2022-11-06T05:51:05;53677.28;;;12.63;100.00
21879;BME280;27908;42.708;23.278;2022-11-06T05:53:33;53630.53;;;12.65;100.00
21879;BME280;27908;42.708;23.278;2022-11-06T05:55:59;53496.22;;;12.25;100.00
21879;BME280;27908;42.708;23.278;2022-11-06T05:58:25;53584.19;;;12.62;100.00
21879;BME280;27908;42.708;23.278;2022-11-06T06:00:53;53523.53;;;12.74;100.00
21879;BME280;27908;42.708;23.278;2022-11-06T06:03:18;53497.94;;;12.65;100.00
21879;BME280;27908;42.708;23.278;2022-11-06T06:05:45;53423.25;;;12.79;100.00
21879;BME280;27908;42.708;23.278;2022-11-06T06:08:11;53413.97;;;12.86;100.00
21879;BME280;27908;42.708;23.278;2022-11-06T06:10:40;53360.00;;;12.91;100.00
21879;BME280;27908;42.708;23.278;2022-11-06T06:13:06;53209.91;;;12.86;100.00
21879;BME280;27908;42.708;23.278;2022-11-06T06:15:32;53279.69;;;12.96;100.00
21879;BME280;27908;42.708;23.278;2022-11-06T06:17:57;53200.94;;;12.81;100.00
21879;BME280;27908;42.708;23.278;2022-11-06T06:20:23;53141.94;;;13.05;100.00
21879;BME280;27908;42.708;23.278;2022-11-06T06:22:53;53013.91;;;12.89;100.00
21879;BME280;27908;42.708;23.278;2022-11-06T06:25:18;52879.13;;;13.25;100.00
21879;BME280;27908;42.708;23.278;2022-11-06T06:27:46;52723.03;;;13.13;100.00
21879;BME280;27908;42.708;23.278;2022-11-06T06:30:12;52648.97;;;13.31;100.00
21879;BME280;27908;42.708;23.278;2022-11-06T06:32:37;52634.47;;;13.32;100.00
21879;BME280;27908;42.708;23.278;2022-11-06T06:35:03;52603.44;;;13.34;100.00
21879;BME280;27908;42.708;23.278;2022-11-06T06:37:29;52471.06;;;13.41;100.00
21879;BME280;27908;42.708;23.278;2022-11-06T06:39:54;52456.16;;;13.41;100.00
21879;BME280;27908;42.708;23.278;2022-11-06T06:42:19;52317.50;;;13.37;100.00
21879;BME280;27908;42.708;23.278;2022-11-06T06:44:45;52341.88;;;13.27;100.00
21879;BME280;27908;42.708;23.278;2022-11-06T06:47:10;52341.19;;;13.53;100.00
21879;BME280;27908;42.708;23.278;2022-11-06T06:49:36;52266.22;;;13.58;100.00
21879;BME280;27908;42.708;23.278;2022-11-06T06:52:01;52225.06;;;13.49;100.00
21879;BME280;27908;42.708;23.278;2022-11-06T06:54:26;52336.38;;;13.65;100.00
21879;BME280;27908;42.708;23.278;2022-11-06T06:56:52;52410.38;;;13.68;100.00
21879;BME280;27908;42.708;23.278;2022-11-06T06:59:17;52373.31;;;13.73;100.00
21879;BME280;27908;42.708;23.278;2022-11-06T07:01:43;52424.81;;;13.73;100.00
21879;BME280;27908;42.708;23.278;2022-11-06T07:04:09;52307.25;;;13.79;100.00
21879;BME280;27908;42.708;23.278;2022-11-06T07:06:34;52254.44;;;13.83;100.00
21879;BME280;27908;42.708;23.278;2022-11-06T07:09:00;52331.88;;;13.87;100.00
21879;BME280;27908;42.708;23.278;2022-11-06T07:11:25;52415.69;;;13.92;100.00
21879;BME280;27908;42.708;23.278;2022-11-06T07:13:51;52225.66;;;14.03;100.00
21879;BME280;27908;42.708;23.278;2022-11-06T07:16:16;52230.97;;;14.19;100.00
21879;BME280;27908;42.708;23.278;2022-11-06T07:18:42;52205.34;;;14.24;100.00
21879;BME280;27908;42.708;23.278;2022-11-06T07:21:10;52358.06;;;14.06;100.00
21879;BME280;27908;42.708;23.278;2022-11-06T07:23:36;52360.38;;;13.87;100.00
21879;BME280;27908;42.708;23.278;2022-11-06T07:26:03;52284.19;;;14.21;100.00
21879;BME280;27908;42.708;23.278;2022-11-06T07:28:29;52281.19;;;14.23;100.00
21879;BME280;27908;42.708;23.278;2022-11-06T07:31:01;52064.28;;;14.27;100.00
21879;BME280;27908;42.708;23.278;2022-11-06T07:33:27;52237.13;;;14.38;100.00
21879;BME280;27908;42.708;23.278;2022-11-06T07:35:52;52248.66;;;14.33;100.00
21879;BME280;27908;42.708;23.278;2022-11-06T07:38:18;52198.78;;;14.38;100.00
21879;BME280;27908;42.708;23.278;2022-11-06T07:40:43;52220.25;;;14.24;100.00
21879;BME280;27908;42.708;23.278;2022-11-06T07:43:10;52084.91;;;14.42;100.00
21879;BME280;27908;42.708;23.278;2022-11-06T07:45:37;52041.78;;;14.49;100.00
21879;BME280;27908;42.708;23.278;2022-11-06T07:48:04;51972.16;;;14.57;100.00
21879;BME280;27908;42.708;23.278;2022-11-06T07:50:30;51948.34;;;14.53;100.00
21879;BME280;27908;42.708;23.278;2022-11-06T07:52:55;51998.13;;;14.57;100.00
21879;BME280;27908;42.708;23.278;2022-11-06T07:55:21;51971.94;;;14.69;100.00
21879;BME280;27908;42.708;23.278;2022-11-06T07:57:47;51569.16;;;14.83;100.00
21879;BME280;27908;42.708;23.278;2022-11-06T08:00:13;51669.22;;;14.89;100.00
21879;BME280;27908;42.708;23.278;2022-11-06T08:02:38;51546.41;;;15.04;100.00
21879;BME280;27908;42.708;23.278;2022-11-06T08:05:04;51648.72;;;15.07;100.00
21879;BME280;27908;42.708;23.278;2022-11-06T08:07:29;51492.72;;;15.20;100.00
21879;BME280;27908;42.708;23.278;2022-11-06T08:09:55;51595.09;;;15.20;100.00
21879;BME280;27908;42.708;23.278;2022-11-06T08:12:20;51671.22;;;15.13;100.00
21879;BME280;27908;42.708;23.278;2022-11-06T08:14:46;51544.56;;;15.27;100.00
21879;BME280;27908;42.708;23.278;2022-11-06T08:17:11;51567.69;;;15.24;100.00
21879;BME280;27908;42.708;23.278;2022-11-06T08:19:37;51653.09;;;15.37;100.00
21879;BME280;27908;42.708;23.278;2022-11-06T08:22:02;51470.50;;;14.26;100.00
21879;BME280;27908;42.708;23.278;2022-11-06T08:24:28;51813.72;;;15.12;100.00
21879;BME280;27908;42.708;23.278;2022-11-06T08:26:53;51786.41;;;15.31;100.00
21879;BME280;27908;42.708;23.278;2022-11-06T08:29:18;51889.72;;;15.29;100.00
21879;BME280;27908;42.708;23.278;2022-11-06T08:31:44;51987.22;;;15.17;100.00
21879;BME280;27908;42.708;23.278;2022-11-06T08:34:09;51919.94;;;15.10;100.00
21879;BME280;27908;42.708;23.278;2022-11-06T08:36:41;51898.53;;;14.94;100.00
21879;BME280;27908;42.708;23.278;2022-11-06T08:39:07;51840.78;;;15.01;100.00
21879;BME280;27908;42.708;23.278;2022-11-06T08:41:33;51715.00;;;15.01;100.00
21879;BME280;27908;42.708;23.278;2022-11-06T08:43:58;51529.41;;;15.02;100.00
21879;BME280;27908;42.708;23.278;2022-11-06T08:46:24;51354.19;;;14.86;100.00
21879;BME280;27908;42.708;23.278;2022-11-06T08:48:49;50905.00;;;14.93;100.00
21879;BME280;27908;42.708;23.278;2022-11-06T08:51:15;50897.97;;;14.75;100.00
21879;BME280;27908;42.708;23.278;2022-11-06T08:53:40;50632.78;;;14.67;100.00
21879;BME280;27908;42.708;23.278;2022-11-06T08:56:06;50471.16;;;14.60;100.00
21879;BME280;27908;42.708;23.278;2022-11-06T08:58:31;50201.91;;;14.68;100.00
21879;BME280;27908;42.708;23.278;2022-11-06T09:00:57;50234.81;;;14.40;100.00
21879;BME280;27908;42.708;23.278;2022-11-06T09:03:22;50107.31;;;14.68;100.00
21879;BME280;27908;42.708;23.278;2022-11-06T09:05:47;49922.69;;;14.71;100.00
21879;BME280;27908;42.708;23.278;2022-11-06T09:08:13;49698.41;;;14.81;100.00
21879;BME280;27908;42.708;23.278;2022-11-06T09:10:40;49434.72;;;14.87;100.00
21879;BME280;27908;42.708;23.278;2022-11-06T09:13:06;49509.72;;;14.94;100.00
21879;BME280;27908;42.708;23.278;2022-11-06T09:15:32;49410.78;;;15.02;100.00
21879;BME280;27908;42.708;23.278;2022-11-06T09:17:58;49075.97;;;15.18;100.00
21879;BME280;27908;42.708;23.278;2022-11-06T09:20:24;49157.84;;;15.31;100.00
21879;BME280;27908;42.708;23.278;2022-11-06T09:22:50;49236.19;;;15.39;100.00
21879;BME280;27908;42.708;23.278;2022-11-06T09:25:16;49165.09;;;15.37;100.00
21879;BME280;27908;42.708;23.278;2022-11-06T09:27:47;49122.97;;;15.48;100.00
21879;BME280;27908;42.708;23.278;2022-11-06T09:30:14;49345.25;;;15.48;100.00
21879;BME280;27908;42.708;23.278;2022-11-06T09:32:51;49277.34;;;15.49;100.00
21879;BME280;27908;42.708;23.278;2022-11-06T09:35:17;48972.63;;;15.33;100.00
21879;BME280;27908;42.708;23.278;2022-11-06T09:37:43;49240.28;;;15.35;100.00
21879;BME280;27908;42.708;23.278;2022-11-06T09:45:31;49655.38;;;14.66;100.00
21879;BME280;27908;42.708;23.278;2022-11-06T09:51:09;49844.41;;;14.69;100.00
21879;BME280;27908;42.708;23.278;2022-11-06T09:53:53;49417.09;;;14.68;100.00
21879;BME280;27908;42.708;23.278;2022-11-06T09:56:20;49237.00;;;14.73;100.00
21879;BME280;27908;42.708;23.278;2022-11-06T09:58:50;49209.47;;;14.71;100.00
21879;BME280;27908;42.708;23.278;2022-11-06T10:01:22;49250.16;;;14.67;100.00
21879;BME280;27908;42.708;23.278;2022-11-06T10:03:53;49547.19;;;14.58;100.00
21879;BME280;27908;42.708;23.278;2022-11-06T10:06:21;49377.34;;;14.63;100.00
21879;BME280;27908;42.708;23.278;2022-11-06T10:08:47;49082.84;;;14.66;100.00
21879;BME280;27908;42.708;23.278;2022-11-06T10:16:52;48931.88;;;14.62;100.00
21879;BME280;27908;42.708;23.278;2022-11-06T10:22:22;48578.44;;;14.61;100.00
21879;BME280;27908;42.708;23.278;2022-11-06T10:25:03;48479.25;;;14.72;100.00
21879;BME280;27908;42.708;23.278;2022-11-06T10:27:41;48280.25;;;14.79;100.00
21879;BME280;27908;42.708;23.278;2022-11-06T10:30:12;48450.78;;;14.71;100.00
21879;BME280;27908;42.708;23.278;2022-11-06T10:32:51;48198.25;;;14.92;100.00
21879;BME280;27908;42.708;23.278;2022-11-06T10:40:42;48342.50;;;14.99;100.00
21879;BME280;27908;42.708;23.278;2022-11-06T10:43:20;48812.41;;;14.95;100.00
21879;BME280;27908;42.708;23.278;2022-11-06T10:45:52;48683.56;;;14.97;100.00
21879;BME280;27908;42.708;23.278;2022-11-06T10:48:28;48648.69;;;14.79;100.00
21879;BME280;27908;42.708;23.278;2022-11-06T10:56:37;48401.09;;;15.19;100.00
21879;BME280;27908;42.708;23.278;2022-11-06T10:59:06;48115.59;;;15.33;100.00
21879;BME280;27908;42.708;23.278;2022-11-06T11:01:32;48282.25;;;15.33;100.00
21879;BME280;27908;42.708;23.278;2022-11-06T11:03:57;48063.47;;;15.09;100.00
21879;BME280;27908;42.708;23.278;2022-11-06T11:06:23;47768.13;;;15.24;100.00
21879;BME280;27908;42.708;23.278;2022-11-06T11:08:49;47869.41;;;15.16;100.00
21879;BME280;27908;42.708;23.278;2022-11-06T11:11:21;48160.94;;;14.90;100.00
21879;BME280;27908;42.708;23.278;2022-11-06T11:14:13;48173.81;;;14.83;100.00
21879;BME280;27908;42.708;23.278;2022-11-06T11:16:41;48007.28;;;14.83;100.00
21879;BME280;27908;42.708;23.278;2022-11-06T11:19:34;48064.00;;;14.77;100.00
21879;BME280;27908;42.708;23.278;2022-11-06T11:22:03;47752.63;;;14.67;100.00
21879;BME280;27908;42.708;23.278;2022-11-06T11:24:29;47989.63;;;14.60;100.00
21879;BME280;27908;42.708;23.278;2022-11-06T11:26:58;48096.13;;;14.59;100.00
21879;BME280;27908;42.708;23.278;2022-11-06T11:29:33;48299.69;;;14.48;100.00
21879;BME280;27908;42.708;23.278;2022-11-06T11:32:06;48155.75;;;14.54;100.00
21879;BME280;27908;42.708;23.278;2022-11-06T11:34:35;48080.56;;;14.62;100.00
21879;BME280;27908;42.708;23.278;2022-11-06T11:37:03;48242.69;;;14.63;100.00
21879;BME280;27908;42.708;23.278;2022-11-06T11:39:42;48135.75;;;14.64;100.00
21879;BME280;27908;42.708;23.278;2022-11-06T11:47:39;48420.72;;;14.69;100.00
21879;BME280;27908;42.708;23.278;2022-11-06T11:52:48;48579.50;;;14.76;100.00
21879;BME280;27908;42.708;23.278;2022-11-06T11:55:17;48857.13;;;14.71;100.00
21879;BME280;27908;42.708;23.278;2022-11-06T11:57:46;48847.31;;;14.72;100.00
21879;BME280;27908;42.708;23.278;2022-11-06T12:00:22;48951.13;;;14.67;100.00
21879;BME280;27908;42.708;23.278;2022-11-06T12:05:21;49133.56;;;14.65;100.00
21879;BME280;27908;42.708;23.278;2022-11-06T12:07:51;49333.50;;;14.63;100.00
21879;BME280;27908;42.708;23.278;2022-11-06T12:10:36;49277.72;;;14.76;100.00
21879;BME280;27908;42.708;23.278;2022-11-06T12:13:14;49260.44;;;14.87;100.00
21879;BME280;27908;42.708;23.278;2022-11-06T12:15:56;49569.56;;;14.77;100.00
21879;BME280;27908;42.708;23.278;2022-11-06T12:18:32;49331.47;;;14.89;100.00
21879;BME280;27908;42.708;23.278;2022-11-06T12:21:05;49541.72;;;14.87;100.00
21879;BME280;27908;42.708;23.278;2022-11-06T12:23:58;49850.72;;;14.86;100.00
21879;BME280;27908;42.708;23.278;2022-11-06T12:26:38;49808.59;;;14.85;100.00
21879;BME280;27908;42.708;23.278;2022-11-06T12:32:03;50190.75;;;14.61;100.00
21879;BME280;27908;42.708;23.278;2022-11-06T12:34:39;50288.06;;;14.58;100.00
21879;BME280;27908;42.708;23.278;2022-11-06T12:43:07;50158.31;;;14.62;100.00
21879;BME280;27908;42.708;23.278;2022-11-06T12:48:23;50262.88;;;14.58;100.00
21879;BME280;27908;42.708;23.278;2022-11-06T13:18:43;50403.09;;;14.58;100.00
21879;BME280;27908;42.708;23.278;2022-11-06T13:23:49;50566.25;;;14.48;100.00
21879;BME280;27908;42.708;23.278;2022-11-06T13:26:23;50509.34;;;14.54;100.00
21879;BME280;27908;42.708;23.278;2022-11-06T13:28:57;50520.94;;;14.52;100.00
21879;BME280;27908;42.708;23.278;2022-11-06T13:31:39;50564.63;;;14.46;100.00
21879;BME280;27908;42.708;23.278;2022-11-06T13:34:06;50531.66;;;14.50;100.00
21879;BME280;27908;42.708;23.278;2022-11-06T13:36:38;50607.91;;;14.40;100.00
21879;BME280;27908;42.708;23.278;2022-11-06T13:39:11;50622.31;;;14.42;100.00
21879;BME280;27908;42.708;23.278;2022-11-06T13:44:22;50626.22;;;14.40;100.00
21879;BME280;27908;42.708;23.278;2022-11-06T13:46:55;50555.88;;;14.42;100.00
21879;BME280;27908;42.708;23.278;2022-11-06T13:52:15;50552.38;;;14.44;100.00
21879;BME280;27908;42.708;23.278;2022-11-06T14:03:36;50606.72;;;14.48;100.00
21879;BME280;27908;42.708;23.278;2022-11-06T14:06:26;50561.75;;;14.33;100.00
21879;BME280;27908;42.708;23.278;2022-11-06T14:08:55;50662.03;;;14.50;100.00
21879;BME280;27908;42.708;23.278;2022-11-06T14:11:29;50767.34;;;14.47;100.00
21879;BME280;27908;42.708;23.278;2022-11-06T14:14:08;50670.13;;;14.50;100.00
21879;BME280;27908;42.708;23.278;2022-11-06T14:16:37;50723.28;;;14.53;100.00
21879;BME280;27908;42.708;23.278;2022-11-06T14:19:22;50702.41;;;14.52;100.00
21879;BME280;27908;42.708;23.278;2022-11-06T14:21:49;50696.88;;;14.52;100.00
21879;BME280;27908;42.708;23.278;2022-11-06T14:26:42;50805.69;;;14.47;100.00
21879;BME280;27908;42.708;23.278;2022-11-06T14:32:02;50842.53;;;14.42;100.00
21879;BME280;27908;42.708;23.278;2022-11-06T14:34:34;50987.31;;;14.44;100.00
21879;BME280;27908;42.708;23.278;2022-11-06T14:52:49;51182.34;;;14.33;100.00
21879;BME280;27908;42.708;23.278;2022-11-06T14:55:32;51052.41;;;14.33;100.00
21879;BME280;27908;42.708;23.278;2022-11-06T14:58:20;51184.81;;;14.36;100.00
21879;BME280;27908;42.708;23.278;2022-11-06T15:00:56;51205.34;;;14.33;100.00
21879;BME280;27908;42.708;23.278;2022-11-06T15:03:30;51209.13;;;14.34;100.00
21879;BME280;27908;42.708;23.278;2022-11-06T15:16:26;52138.00;;;14.26;100.00
21879;BME280;27908;42.708;23.278;2022-11-06T15:18:53;52009.19;;;14.10;100.00
21879;BME280;27908;42.708;23.278;2022-11-06T15:21:23;52211.91;;;14.11;100.00
21879;BME280;27908;42.708;23.278;2022-11-06T15:24:07;52291.09;;;14.14;100.00
21879;BME280;27908;42.708;23.278;2022-11-06T15:26:48;52449.97;;;14.15;99.91
21879;BME280;27908;42.708;23.278;2022-11-06T15:31:43;52341.28;;;14.22;100.00